sensor_id;sensor_type;location;lat;lon;timestamp;P1;durP1;ratioP1;P2;durP2;ratioP2
60831;SDS011;46665;51.558;-0.448;2022-07-30T00:00:56;0.50;;;0.45;;
60831;SDS011;46665;51.558;-0.448;2022-07-30T00:03:22;1.08;;;0.65;;
60831;SDS011;46665;51.558;-0.448;2022-07-30T00:05:47;2.03;;;1.00;;
60831;SDS011;46665;51.558;-0.448;2022-07-30T00:08:13;1.92;;;0.80;;
60831;SDS011;46665;51.558;-0.448;2022-07-30T00:10:39;1.90;;;0.65;;
60831;SDS011;46665;51.558;-0.448;2022-07-30T00:13:05;0.70;;;0.68;;
60831;SDS011;46665;51.558;-0.448;2022-07-30T00:15:31;3.05;;;0.70;;
60831;SDS011;46665;51.558;-0.448;2022-07-30T00:17:56;1.92;;;1.27;;
60831;SDS011;46665;51.558;-0.448;2022-07-30T00:20:22;0.95;;;0.70;;
60831;SDS011;46665;51.558;-0.448;2022-07-30T00:22:47;5.28;;;0.98;;
60831;SDS011;46665;51.558;-0.448;2022-07-30T00:25:13;1.23;;;1.02;;
60831;SDS011;46665;51.558;-0.448;2022-07-30T00:27:38;2.20;;;1.10;;
60831;SDS011;46665;51.558;-0.448;2022-07-30T00:30:04;2.10;;;1.05;;
60831;SDS011;46665;51.558;-0.448;2022-07-30T00:32:30;1.85;;;1.40;;
60831;SDS011;46665;51.558;-0.448;2022-07-30T00:34:55;5.85;;;0.90;;
60831;SDS011;46665;51.558;-0.448;2022-07-30T00:37:21;1.40;;;0.95;;
60831;SDS011;46665;51.558;-0.448;2022-07-30T00:39:47;1.48;;;1.30;;
60831;SDS011;46665;51.558;-0.448;2022-07-30T00:42:12;1.35;;;1.25;;
60831;SDS011;46665;51.558;-0.448;2022-07-30T00:44:38;0.98;;;0.88;;
60831;SDS011;46665;51.558;-0.448;2022-07-30T00:47:05;1.40;;;1.30;;
60831;SDS011;46665;51.558;-0.448;2022-07-30T00:49:30;1.00;;;0.90;;
60831;SDS011;46665;51.558;-0.448;2022-07-30T00:51:56;1.02;;;0.93;;
60831;SDS011;46665;51.558;-0.448;2022-07-30T00:54:21;1.45;;;1.35;;
60831;SDS011;46665;51.558;-0.448;2022-07-30T00:56:46;1.77;;;1.40;;
60831;SDS011;46665;51.558;-0.448;2022-07-30T00:59:12;1.30;;;1.15;;
60831;SDS011;46665;51.558;-0.448;2022-07-30T01:01:38;1.38;;;1.27;;
60831;SDS011;46665;51.558;-0.448;2022-07-30T01:04:04;1.30;;;1.20;;
60831;SDS011;46665;51.558;-0.448;2022-07-30T01:06:35;1.73;;;1.63;;
60831;SDS011;46665;51.558;-0.448;2022-07-30T01:09:02;2.10;;;1.15;;
60831;SDS011;46665;51.558;-0.448;2022-07-30T01:11:31;1.80;;;1.27;;
60831;SDS011;46665;51.558;-0.448;2022-07-30T01:14:00;3.28;;;1.30;;
60831;SDS011;46665;51.558;-0.448;2022-07-30T01:16:26;1.25;;;1.15;;
60831;SDS011;46665;51.558;-0.448;2022-07-30T01:18:52;1.83;;;1.13;;
60831;SDS011;46665;51.558;-0.448;2022-07-30T01:21:40;5.10;;;1.88;;
60831;SDS011;46665;51.558;-0.448;2022-07-30T01:24:19;2.80;;;1.73;;
60831;SDS011;46665;51.558;-0.448;2022-07-30T01:26:52;1.95;;;1.42;;
60831;SDS011;46665;51.558;-0.448;2022-07-30T01:29:19;3.05;;;1.65;;
60831;SDS011;46665;51.558;-0.448;2022-07-30T01:31:46;2.35;;;1.45;;
60831;SDS011;46665;51.558;-0.448;2022-07-30T01:34:14;4.30;;;1.63;;
60831;SDS011;46665;51.558;-0.448;2022-07-30T01:36:41;6.35;;;1.15;;
60831;SDS011;46665;51.558;-0.448;2022-07-30T01:39:10;3.67;;;1.75;;
60831;SDS011;46665;51.558;-0.448;2022-07-30T01:41:37;1.20;;;1.10;;
60831;SDS011;46665;51.558;-0.448;2022-07-30T01:44:04;1.85;;;1.63;;
60831;SDS011;46665;51.558;-0.448;2022-07-30T01:46:30;3.30;;;1.67;;
60831;SDS011;46665;51.558;-0.448;2022-07-30T01:48:57;2.30;;;1.83;;
60831;SDS011;46665;51.558;-0.448;2022-07-30T01:51:24;2.63;;;2.30;;
60831;SDS011;46665;51.558;-0.448;2022-07-30T01:53:52;4.65;;;1.58;;
60831;SDS011;46665;51.558;-0.448;2022-07-30T01:56:20;1.80;;;1.70;;
60831;SDS011;46665;51.558;-0.448;2022-07-30T01:58:48;2.90;;;1.73;;
60831;SDS011;46665;51.558;-0.448;2022-07-30T02:01:16;2.63;;;1.88;;
60831;SDS011;46665;51.558;-0.448;2022-07-30T02:03:42;5.63;;;1.50;;
60831;SDS011;46665;51.558;-0.448;2022-07-30T02:06:11;2.28;;;2.08;;
60831;SDS011;46665;51.558;-0.448;2022-07-30T02:08:43;3.35;;;1.65;;
60831;SDS011;46665;51.558;-0.448;2022-07-30T02:11:15;4.03;;;2.25;;
60831;SDS011;46665;51.558;-0.448;2022-07-30T02:14:00;2.63;;;1.75;;
60831;SDS011;46665;51.558;-0.448;2022-07-30T02:16:27;2.20;;;1.60;;
60831;SDS011;46665;51.558;-0.448;2022-07-30T02:19:02;1.95;;;1.73;;
60831;SDS011;46665;51.558;-0.448;2022-07-30T02:21:35;5.07;;;1.92;;
60831;SDS011;46665;51.558;-0.448;2022-07-30T02:24:04;2.95;;;1.95;;
60831;SDS011;46665;51.558;-0.448;2022-07-30T02:26:32;4.03;;;2.00;;
60831;SDS011;46665;51.558;-0.448;2022-07-30T02:29:01;6.53;;;1.90;;
60831;SDS011;46665;51.558;-0.448;2022-07-30T02:31:28;3.97;;;2.28;;
60831;SDS011;46665;51.558;-0.448;2022-07-30T02:33:57;4.53;;;2.33;;
60831;SDS011;46665;51.558;-0.448;2022-07-30T02:36:25;2.38;;;2.15;;
60831;SDS011;46665;51.558;-0.448;2022-07-30T02:38:52;4.13;;;2.58;;
60831;SDS011;46665;51.558;-0.448;2022-07-30T02:41:19;2.35;;;2.05;;
60831;SDS011;46665;51.558;-0.448;2022-07-30T02:43:46;9.85;;;1.85;;
60831;SDS011;46665;51.558;-0.448;2022-07-30T02:46:13;4.75;;;2.05;;
60831;SDS011;46665;51.558;-0.448;2022-07-30T02:48:42;2.65;;;1.73;;
60831;SDS011;46665;51.558;-0.448;2022-07-30T02:51:09;2.88;;;1.88;;
60831;SDS011;46665;51.558;-0.448;2022-07-30T02:53:36;2.28;;;1.90;;
60831;SDS011;46665;51.558;-0.448;2022-07-30T02:56:02;4.05;;;1.98;;
60831;SDS011;46665;51.558;-0.448;2022-07-30T02:58:31;3.42;;;1.85;;
60831;SDS011;46665;51.558;-0.448;2022-07-30T03:00:59;1.88;;;1.77;;
60831;SDS011;46665;51.558;-0.448;2022-07-30T03:03:26;2.55;;;1.88;;
60831;SDS011;46665;51.558;-0.448;2022-07-30T03:05:53;9.48;;;2.10;;
60831;SDS011;46665;51.558;-0.448;2022-07-30T03:08:19;2.85;;;2.20;;
60831;SDS011;46665;51.558;-0.448;2022-07-30T03:10:47;7.80;;;2.38;;
60831;SDS011;46665;51.558;-0.448;2022-07-30T03:13:13;4.50;;;2.97;;
60831;SDS011;46665;51.558;-0.448;2022-07-30T03:15:41;2.97;;;2.33;;
60831;SDS011;46665;51.558;-0.448;2022-07-30T03:18:11;5.25;;;2.58;;
60831;SDS011;46665;51.558;-0.448;2022-07-30T03:20:38;3.20;;;2.20;;
60831;SDS011;46665;51.558;-0.448;2022-07-30T03:23:04;2.08;;;1.90;;
60831;SDS011;46665;51.558;-0.448;2022-07-30T03:25:32;3.10;;;1.67;;
60831;SDS011;46665;51.558;-0.448;2022-07-30T03:28:00;3.15;;;2.00;;
60831;SDS011;46665;51.558;-0.448;2022-07-30T03:30:28;3.53;;;1.83;;
60831;SDS011;46665;51.558;-0.448;2022-07-30T03:32:54;2.83;;;2.22;;
60831;SDS011;46665;51.558;-0.448;2022-07-30T03:35:21;4.57;;;2.15;;
60831;SDS011;46665;51.558;-0.448;2022-07-30T03:37:49;3.15;;;1.95;;
60831;SDS011;46665;51.558;-0.448;2022-07-30T03:40:15;3.83;;;2.78;;
60831;SDS011;46665;51.558;-0.448;2022-07-30T03:42:41;2.35;;;1.85;;
60831;SDS011;46665;51.558;-0.448;2022-07-30T03:45:09;2.35;;;2.13;;
60831;SDS011;46665;51.558;-0.448;2022-07-30T03:47:38;3.28;;;2.10;;
60831;SDS011;46665;51.558;-0.448;2022-07-30T03:50:06;2.17;;;2.00;;
60831;SDS011;46665;51.558;-0.448;2022-07-30T03:52:36;2.00;;;1.80;;
60831;SDS011;46665;51.558;-0.448;2022-07-30T03:55:05;5.35;;;2.35;;
60831;SDS011;46665;51.558;-0.448;2022-07-30T03:57:31;3.40;;;1.88;;
60831;SDS011;46665;51.558;-0.448;2022-07-30T03:59:57;1.50;;;1.40;;
60831;SDS011;46665;51.558;-0.448;2022-07-30T04:02:23;7.03;;;1.85;;
60831;SDS011;46665;51.558;-0.448;2022-07-30T04:04:48;2.88;;;2.00;;
60831;SDS011;46665;51.558;-0.448;2022-07-30T04:07:14;1.88;;;1.75;;
60831;SDS011;46665;51.558;-0.448;2022-07-30T04:09:39;5.45;;;2.17;;
60831;SDS011;46665;51.558;-0.448;2022-07-30T04:12:05;2.15;;;1.95;;
60831;SDS011;46665;51.558;-0.448;2022-07-30T04:14:40;2.20;;;1.95;;
60831;SDS011;46665;51.558;-0.448;2022-07-30T04:17:21;1.95;;;1.70;;
60831;SDS011;46665;51.558;-0.448;2022-07-30T04:19:56;2.97;;;1.98;;
60831;SDS011;46665;51.558;-0.448;2022-07-30T04:22:26;2.22;;;1.77;;
60831;SDS011;46665;51.558;-0.448;2022-07-30T04:24:54;1.95;;;1.83;;
60831;SDS011;46665;51.558;-0.448;2022-07-30T04:27:21;1.90;;;1.63;;
60831;SDS011;46665;51.558;-0.448;2022-07-30T04:29:49;3.47;;;2.28;;
60831;SDS011;46665;51.558;-0.448;2022-07-30T04:32:18;5.72;;;2.80;;
60831;SDS011;46665;51.558;-0.448;2022-07-30T04:34:45;5.35;;;2.67;;
60831;SDS011;46665;51.558;-0.448;2022-07-30T04:37:11;2.83;;;2.38;;
60831;SDS011;46665;51.558;-0.448;2022-07-30T04:39:37;3.55;;;2.15;;
60831;SDS011;46665;51.558;-0.448;2022-07-30T04:42:02;2.42;;;2.22;;
60831;SDS011;46665;51.558;-0.448;2022-07-30T04:44:28;2.75;;;2.17;;
60831;SDS011;46665;51.558;-0.448;2022-07-30T04:46:53;2.50;;;2.05;;
60831;SDS011;46665;51.558;-0.448;2022-07-30T04:49:19;6.45;;;1.92;;
60831;SDS011;46665;51.558;-0.448;2022-07-30T04:51:46;2.55;;;2.22;;
60831;SDS011;46665;51.558;-0.448;2022-07-30T04:54:13;2.53;;;2.33;;
60831;SDS011;46665;51.558;-0.448;2022-07-30T04:56:40;3.33;;;2.30;;
60831;SDS011;46665;51.558;-0.448;2022-07-30T04:59:06;1.70;;;1.60;;
60831;SDS011;46665;51.558;-0.448;2022-07-30T05:01:34;1.70;;;1.60;;
60831;SDS011;46665;51.558;-0.448;2022-07-30T05:04:02;8.07;;;1.88;;
60831;SDS011;46665;51.558;-0.448;2022-07-30T05:06:30;4.57;;;2.00;;
60831;SDS011;46665;51.558;-0.448;2022-07-30T05:08:57;7.15;;;1.80;;
60831;SDS011;46665;51.558;-0.448;2022-07-30T05:11:22;7.03;;;2.20;;
60831;SDS011;46665;51.558;-0.448;2022-07-30T05:13:48;2.97;;;2.10;;
60831;SDS011;46665;51.558;-0.448;2022-07-30T05:16:14;2.97;;;1.70;;
60831;SDS011;46665;51.558;-0.448;2022-07-30T05:18:40;4.45;;;2.05;;
60831;SDS011;46665;51.558;-0.448;2022-07-30T05:21:05;2.65;;;1.77;;
60831;SDS011;46665;51.558;-0.448;2022-07-30T05:23:31;4.70;;;2.30;;
60831;SDS011;46665;51.558;-0.448;2022-07-30T05:25:57;1.50;;;1.40;;
60831;SDS011;46665;51.558;-0.448;2022-07-30T05:28:23;3.10;;;1.85;;
60831;SDS011;46665;51.558;-0.448;2022-07-30T05:30:51;2.20;;;1.80;;
60831;SDS011;46665;51.558;-0.448;2022-07-30T05:33:17;2.25;;;1.80;;
60831;SDS011;46665;51.558;-0.448;2022-07-30T05:35:43;1.45;;;1.23;;
60831;SDS011;46665;51.558;-0.448;2022-07-30T05:38:08;1.92;;;1.15;;
60831;SDS011;46665;51.558;-0.448;2022-07-30T05:40:34;2.03;;;1.73;;
60831;SDS011;46665;51.558;-0.448;2022-07-30T05:42:59;1.95;;;1.25;;
60831;SDS011;46665;51.558;-0.448;2022-07-30T05:45:25;1.40;;;1.30;;
60831;SDS011;46665;51.558;-0.448;2022-07-30T05:47:50;2.53;;;1.52;;
60831;SDS011;46665;51.558;-0.448;2022-07-30T05:50:15;2.70;;;1.08;;
60831;SDS011;46665;51.558;-0.448;2022-07-30T05:52:41;2.10;;;1.38;;
60831;SDS011;46665;51.558;-0.448;2022-07-30T05:55:06;2.75;;;1.35;;
60831;SDS011;46665;51.558;-0.448;2022-07-30T05:57:36;2.65;;;1.33;;
60831;SDS011;46665;51.558;-0.448;2022-07-30T06:00:03;1.05;;;0.98;;
60831;SDS011;46665;51.558;-0.448;2022-07-30T06:02:30;3.70;;;1.35;;
60831;SDS011;46665;51.558;-0.448;2022-07-30T06:04:55;1.10;;;1.02;;
60831;SDS011;46665;51.558;-0.448;2022-07-30T06:07:21;1.27;;;0.80;;
60831;SDS011;46665;51.558;-0.448;2022-07-30T06:09:46;1.38;;;1.27;;
60831;SDS011;46665;51.558;-0.448;2022-07-30T06:12:12;1.30;;;1.20;;
60831;SDS011;46665;51.558;-0.448;2022-07-30T06:14:37;1.58;;;1.20;;
60831;SDS011;46665;51.558;-0.448;2022-07-30T06:17:03;1.88;;;1.10;;
60831;SDS011;46665;51.558;-0.448;2022-07-30T06:19:28;2.03;;;1.05;;
60831;SDS011;46665;51.558;-0.448;2022-07-30T06:21:53;1.73;;;0.98;;
60831;SDS011;46665;51.558;-0.448;2022-07-30T06:24:19;1.58;;;1.23;;
60831;SDS011;46665;51.558;-0.448;2022-07-30T06:26:44;1.15;;;1.05;;
60831;SDS011;46665;51.558;-0.448;2022-07-30T06:29:09;1.35;;;1.00;;
60831;SDS011;46665;51.558;-0.448;2022-07-30T06:31:35;0.85;;;0.70;;
60831;SDS011;46665;51.558;-0.448;2022-07-30T06:34:02;1.42;;;0.93;;
60831;SDS011;46665;51.558;-0.448;2022-07-30T06:36:28;1.15;;;1.05;;
60831;SDS011;46665;51.558;-0.448;2022-07-30T06:38:54;0.82;;;0.57;;
60831;SDS011;46665;51.558;-0.448;2022-07-30T06:41:19;2.50;;;0.90;;
60831;SDS011;46665;51.558;-0.448;2022-07-30T06:43:45;0.73;;;0.73;;
60831;SDS011;46665;51.558;-0.448;2022-07-30T06:46:10;1.15;;;0.70;;
60831;SDS011;46665;51.558;-0.448;2022-07-30T06:48:36;1.08;;;0.60;;
60831;SDS011;46665;51.558;-0.448;2022-07-30T06:51:01;0.98;;;0.63;;
60831;SDS011;46665;51.558;-0.448;2022-07-30T06:53:27;1.00;;;0.95;;
60831;SDS011;46665;51.558;-0.448;2022-07-30T06:55:52;0.57;;;0.50;;
60831;SDS011;46665;51.558;-0.448;2022-07-30T06:58:18;3.15;;;0.82;;
60831;SDS011;46665;51.558;-0.448;2022-07-30T07:00:43;0.80;;;0.73;;
60831;SDS011;46665;51.558;-0.448;2022-07-30T07:03:09;1.17;;;0.50;;
60831;SDS011;46665;51.558;-0.448;2022-07-30T07:05:35;1.20;;;0.55;;
60831;SDS011;46665;51.558;-0.448;2022-07-30T07:08:00;2.88;;;0.80;;
60831;SDS011;46665;51.558;-0.448;2022-07-30T07:10:26;0.50;;;0.50;;
60831;SDS011;46665;51.558;-0.448;2022-07-30T07:12:51;1.38;;;0.65;;
60831;SDS011;46665;51.558;-0.448;2022-07-30T07:15:17;0.73;;;0.73;;
60831;SDS011;46665;51.558;-0.448;2022-07-30T07:17:42;0.47;;;0.47;;
60831;SDS011;46665;51.558;-0.448;2022-07-30T07:20:08;0.40;;;0.40;;
60831;SDS011;46665;51.558;-0.448;2022-07-30T07:22:34;0.77;;;0.70;;
60831;SDS011;46665;51.558;-0.448;2022-07-30T07:24:59;0.95;;;0.70;;
60831;SDS011;46665;51.558;-0.448;2022-07-30T07:27:25;2.15;;;0.80;;
60831;SDS011;46665;51.558;-0.448;2022-07-30T07:29:50;0.63;;;0.63;;
60831;SDS011;46665;51.558;-0.448;2022-07-30T07:32:16;1.15;;;0.70;;
60831;SDS011;46665;51.558;-0.448;2022-07-30T07:34:41;0.65;;;0.65;;
60831;SDS011;46665;51.558;-0.448;2022-07-30T07:37:06;0.63;;;0.40;;
60831;SDS011;46665;51.558;-0.448;2022-07-30T07:39:32;0.30;;;0.30;;
60831;SDS011;46665;51.558;-0.448;2022-07-30T07:41:57;0.60;;;0.60;;
60831;SDS011;46665;51.558;-0.448;2022-07-30T07:44:23;0.77;;;0.47;;
60831;SDS011;46665;51.558;-0.448;2022-07-30T07:46:48;1.58;;;0.70;;
60831;SDS011;46665;51.558;-0.448;2022-07-30T07:49:13;3.63;;;0.70;;
60831;SDS011;46665;51.558;-0.448;2022-07-30T07:51:39;0.75;;;0.73;;
60831;SDS011;46665;51.558;-0.448;2022-07-30T07:54:04;1.67;;;0.70;;
60831;SDS011;46665;51.558;-0.448;2022-07-30T07:56:30;6.53;;;0.50;;
60831;SDS011;46665;51.558;-0.448;2022-07-30T07:58:55;0.32;;;0.32;;
60831;SDS011;46665;51.558;-0.448;2022-07-30T08:01:21;0.50;;;0.50;;
60831;SDS011;46665;51.558;-0.448;2022-07-30T08:03:47;3.67;;;0.52;;
60831;SDS011;46665;51.558;-0.448;2022-07-30T08:06:12;0.20;;;0.20;;
60831;SDS011;46665;51.558;-0.448;2022-07-30T08:08:37;0.38;;;0.22;;
60831;SDS011;46665;51.558;-0.448;2022-07-30T08:11:03;1.00;;;0.70;;
60831;SDS011;46665;51.558;-0.448;2022-07-30T08:13:30;0.40;;;0.32;;
60831;SDS011;46665;51.558;-0.448;2022-07-30T08:15:55;0.63;;;0.43;;
60831;SDS011;46665;51.558;-0.448;2022-07-30T08:18:20;0.85;;;0.47;;
60831;SDS011;46665;51.558;-0.448;2022-07-30T08:20:46;0.93;;;0.40;;
60831;SDS011;46665;51.558;-0.448;2022-07-30T08:23:11;0.82;;;0.60;;
60831;SDS011;46665;51.558;-0.448;2022-07-30T08:25:36;0.50;;;0.40;;
60831;SDS011;46665;51.558;-0.448;2022-07-30T08:28:02;0.30;;;0.30;;
60831;SDS011;46665;51.558;-0.448;2022-07-30T08:30:28;0.20;;;0.20;;
60831;SDS011;46665;51.558;-0.448;2022-07-30T08:32:53;1.65;;;0.30;;
60831;SDS011;46665;51.558;-0.448;2022-07-30T08:35:19;0.35;;;0.35;;
60831;SDS011;46665;51.558;-0.448;2022-07-30T08:37:44;0.85;;;0.30;;
60831;SDS011;46665;51.558;-0.448;2022-07-30T08:40:11;0.85;;;0.30;;
60831;SDS011;46665;51.558;-0.448;2022-07-30T08:42:37;0.38;;;0.30;;
60831;SDS011;46665;51.558;-0.448;2022-07-30T08:45:03;0.30;;;0.30;;
60831;SDS011;46665;51.558;-0.448;2022-07-30T08:47:31;0.40;;;0.40;;
60831;SDS011;46665;51.558;-0.448;2022-07-30T08:49:58;0.57;;;0.40;;
60831;SDS011;46665;51.558;-0.448;2022-07-30T08:52:31;0.57;;;0.30;;
60831;SDS011;46665;51.558;-0.448;2022-07-30T08:54:57;0.10;;;0.10;;
60831;SDS011;46665;51.558;-0.448;2022-07-30T08:57:29;0.55;;;0.40;;
60831;SDS011;46665;51.558;-0.448;2022-07-30T08:59:56;0.75;;;0.30;;
60831;SDS011;46665;51.558;-0.448;2022-07-30T09:02:22;5.25;;;0.32;;
60831;SDS011;46665;51.558;-0.448;2022-07-30T09:04:48;0.22;;;0.22;;
60831;SDS011;46665;51.558;-0.448;2022-07-30T09:07:13;0.10;;;0.10;;
60831;SDS011;46665;51.558;-0.448;2022-07-30T09:09:39;0.10;;;0.10;;
60831;SDS011;46665;51.558;-0.448;2022-07-30T09:12:30;0.15;;;0.15;;
60831;SDS011;46665;51.558;-0.448;2022-07-30T09:20:27;0.10;;;0.10;;
60831;SDS011;46665;51.558;-0.448;2022-07-30T09:22:55;0.35;;;0.25;;
60831;SDS011;46665;51.558;-0.448;2022-07-30T09:25:31;0.40;;;0.40;;
60831;SDS011;46665;51.558;-0.448;2022-07-30T09:28:01;0.77;;;0.20;;
60831;SDS011;46665;51.558;-0.448;2022-07-30T09:30:41;0.20;;;0.20;;
60831;SDS011;46665;51.558;-0.448;2022-07-30T09:33:07;0.32;;;0.17;;
60831;SDS011;46665;51.558;-0.448;2022-07-30T09:35:33;1.45;;;0.05;;
60831;SDS011;46665;51.558;-0.448;2022-07-30T09:37:58;1.20;;;0.20;;
60831;SDS011;46665;51.558;-0.448;2022-07-30T09:40:24;0.20;;;0.20;;
60831;SDS011;46665;51.558;-0.448;2022-07-30T09:43:04;0.40;;;0.40;;
60831;SDS011;46665;51.558;-0.448;2022-07-30T09:45:31;0.20;;;0.20;;
60831;SDS011;46665;51.558;-0.448;2022-07-30T09:47:56;0.43;;;0.30;;
60831;SDS011;46665;51.558;-0.448;2022-07-30T09:50:22;0.10;;;0.10;;
60831;SDS011;46665;51.558;-0.448;2022-07-30T09:52:49;0.20;;;0.20;;
60831;SDS011;46665;51.558;-0.448;2022-07-30T09:55:27;0.20;;;0.10;;
60831;SDS011;46665;51.558;-0.448;2022-07-30T09:58:01;0.10;;;0.10;;
60831;SDS011;46665;51.558;-0.448;2022-07-30T10:00:29;2.15;;;0.20;;
60831;SDS011;46665;51.558;-0.448;2022-07-30T10:02:56;0.13;;;0.13;;
60831;SDS011;46665;51.558;-0.448;2022-07-30T10:05:22;0.80;;;0.20;;
60831;SDS011;46665;51.558;-0.448;2022-07-30T10:07:49;0.10;;;0.10;;
60831;SDS011;46665;51.558;-0.448;2022-07-30T10:10:20;0.03;;;0.03;;
60831;SDS011;46665;51.558;-0.448;2022-07-30T10:12:50;0.10;;;0.10;;
60831;SDS011;46665;51.558;-0.448;2022-07-30T10:15:20;0.65;;;0.50;;
60831;SDS011;46665;51.558;-0.448;2022-07-30T10:17:48;1.85;;;0.30;;
60831;SDS011;46665;51.558;-0.448;2022-07-30T10:20:14;0.75;;;0.10;;
60831;SDS011;46665;51.558;-0.448;2022-07-30T10:22:41;0.20;;;0.20;;
60831;SDS011;46665;51.558;-0.448;2022-07-30T10:25:07;0.30;;;0.22;;
60831;SDS011;46665;51.558;-0.448;2022-07-30T10:27:33;1.85;;;0.20;;
60831;SDS011;46665;51.558;-0.448;2022-07-30T10:29:58;0.30;;;0.30;;
60831;SDS011;46665;51.558;-0.448;2022-07-30T10:32:25;6.53;;;0.40;;
60831;SDS011;46665;51.558;-0.448;2022-07-30T10:34:51;0.10;;;0.10;;
60831;SDS011;46665;51.558;-0.448;2022-07-30T10:37:16;0.20;;;0.20;;
60831;SDS011;46665;51.558;-0.448;2022-07-30T10:39:46;0.25;;;0.25;;
60831;SDS011;46665;51.558;-0.448;2022-07-30T10:47:23;0.13;;;0.13;;
60831;SDS011;46665;51.558;-0.448;2022-07-30T10:55:31;0.20;;;0.20;;
60831;SDS011;46665;51.558;-0.448;2022-07-30T10:58:03;1.13;;;0.20;;
60831;SDS011;46665;51.558;-0.448;2022-07-30T11:05:45;0.22;;;0.20;;
60831;SDS011;46665;51.558;-0.448;2022-07-30T11:08:34;0.20;;;0.20;;
60831;SDS011;46665;51.558;-0.448;2022-07-30T11:11:03;0.10;;;0.10;;
60831;SDS011;46665;51.558;-0.448;2022-07-30T11:16:19;0.20;;;0.17;;
60831;SDS011;46665;51.558;-0.448;2022-07-30T11:21:30;0.10;;;0.10;;
60831;SDS011;46665;51.558;-0.448;2022-07-30T11:23:56;2.83;;;0.73;;
60831;SDS011;46665;51.558;-0.448;2022-07-30T11:29:04;0.20;;;0.13;;
60831;SDS011;46665;51.558;-0.448;2022-07-30T11:31:34;1.25;;;0.40;;
60831;SDS011;46665;51.558;-0.448;2022-07-30T11:42:26;0.28;;;0.20;;
60831;SDS011;46665;51.558;-0.448;2022-07-30T11:47:47;0.20;;;0.20;;
60831;SDS011;46665;51.558;-0.448;2022-07-30T11:50:24;0.52;;;0.10;;
60831;SDS011;46665;51.558;-0.448;2022-07-30T11:52:52;0.20;;;0.20;;
60831;SDS011;46665;51.558;-0.448;2022-07-30T11:55:37;0.70;;;0.20;;
60831;SDS011;46665;51.558;-0.448;2022-07-30T11:58:05;0.17;;;0.17;;
60831;SDS011;46665;51.558;-0.448;2022-07-30T12:00:33;0.10;;;0.10;;
60831;SDS011;46665;51.558;-0.448;2022-07-30T12:03:11;1.92;;;0.25;;
60831;SDS011;46665;51.558;-0.448;2022-07-30T12:05:38;3.00;;;0.20;;
60831;SDS011;46665;51.558;-0.448;2022-07-30T12:08:04;0.40;;;0.30;;
60831;SDS011;46665;51.558;-0.448;2022-07-30T12:10:30;1.55;;;0.63;;
60831;SDS011;46665;51.558;-0.448;2022-07-30T12:15:42;0.10;;;0.10;;
60831;SDS011;46665;51.558;-0.448;2022-07-30T12:18:09;0.20;;;0.20;;
60831;SDS011;46665;51.558;-0.448;2022-07-30T12:20:37;0.15;;;0.15;;
60831;SDS011;46665;51.558;-0.448;2022-07-30T12:23:13;0.10;;;0.10;;
60831;SDS011;46665;51.558;-0.448;2022-07-30T12:25:42;0.20;;;0.20;;
60831;SDS011;46665;51.558;-0.448;2022-07-30T12:28:09;0.10;;;0.10;;
60831;SDS011;46665;51.558;-0.448;2022-07-30T12:30:41;0.30;;;0.30;;
60831;SDS011;46665;51.558;-0.448;2022-07-30T12:33:06;0.20;;;0.20;;
60831;SDS011;46665;51.558;-0.448;2022-07-30T12:38:18;0.80;;;0.40;;
60831;SDS011;46665;51.558;-0.448;2022-07-30T12:41:03;0.13;;;0.13;;
60831;SDS011;46665;51.558;-0.448;2022-07-30T12:43:45;0.13;;;0.13;;
60831;SDS011;46665;51.558;-0.448;2022-07-30T12:46:13;0.30;;;0.20;;
60831;SDS011;46665;51.558;-0.448;2022-07-30T12:48:59;1.35;;;0.15;;
60831;SDS011;46665;51.558;-0.448;2022-07-30T12:51:30;0.20;;;0.10;;
60831;SDS011;46665;51.558;-0.448;2022-07-30T12:53:58;0.15;;;0.15;;
60831;SDS011;46665;51.558;-0.448;2022-07-30T12:56:25;0.10;;;0.10;;
60831;SDS011;46665;51.558;-0.448;2022-07-30T12:58:52;0.30;;;0.30;;
60831;SDS011;46665;51.558;-0.448;2022-07-30T13:01:37;0.30;;;0.30;;
60831;SDS011;46665;51.558;-0.448;2022-07-30T13:04:07;0.20;;;0.10;;
60831;SDS011;46665;51.558;-0.448;2022-07-30T13:06:33;0.10;;;0.10;;
60831;SDS011;46665;51.558;-0.448;2022-07-30T13:08:59;0.20;;;0.20;;
60831;SDS011;46665;51.558;-0.448;2022-07-30T13:11:26;0.10;;;0.10;;
60831;SDS011;46665;51.558;-0.448;2022-07-30T13:14:02;0.43;;;0.10;;
60831;SDS011;46665;51.558;-0.448;2022-07-30T13:16:29;0.32;;;0.20;;
60831;SDS011;46665;51.558;-0.448;2022-07-30T13:18:56;1.17;;;0.20;;
60831;SDS011;46665;51.558;-0.448;2022-07-30T13:21:22;0.68;;;0.30;;
60831;SDS011;46665;51.558;-0.448;2022-07-30T13:23:47;0.30;;;0.30;;
60831;SDS011;46665;51.558;-0.448;2022-07-30T13:26:13;0.63;;;0.17;;
60831;SDS011;46665;51.558;-0.448;2022-07-30T13:28:39;0.20;;;0.15;;
60831;SDS011;46665;51.558;-0.448;2022-07-30T13:31:04;0.45;;;0.35;;
60831;SDS011;46665;51.558;-0.448;2022-07-30T13:33:31;0.20;;;0.20;;
60831;SDS011;46665;51.558;-0.448;2022-07-30T13:35:58;0.30;;;0.15;;
60831;SDS011;46665;51.558;-0.448;2022-07-30T13:38:23;0.20;;;0.20;;
60831;SDS011;46665;51.558;-0.448;2022-07-30T13:40:49;0.15;;;0.15;;
60831;SDS011;46665;51.558;-0.448;2022-07-30T13:43:15;0.20;;;0.20;;
60831;SDS011;46665;51.558;-0.448;2022-07-30T13:45:40;0.15;;;0.15;;
60831;SDS011;46665;51.558;-0.448;2022-07-30T13:48:06;0.10;;;0.10;;
60831;SDS011;46665;51.558;-0.448;2022-07-30T13:50:31;0.60;;;0.22;;
60831;SDS011;46665;51.558;-0.448;2022-07-30T13:52:57;0.17;;;0.17;;
60831;SDS011;46665;51.558;-0.448;2022-07-30T13:55:23;0.10;;;0.10;;
60831;SDS011;46665;51.558;-0.448;2022-07-30T13:57:48;0.10;;;0.10;;
60831;SDS011;46665;51.558;-0.448;2022-07-30T14:00:14;0.22;;;0.20;;
60831;SDS011;46665;51.558;-0.448;2022-07-30T14:02:39;0.20;;;0.20;;
60831;SDS011;46665;51.558;-0.448;2022-07-30T14:05:05;0.10;;;0.10;;
60831;SDS011;46665;51.558;-0.448;2022-07-30T14:07:38;0.10;;;0.10;;
60831;SDS011;46665;51.558;-0.448;2022-07-30T14:10:04;0.20;;;0.20;;
60831;SDS011;46665;51.558;-0.448;2022-07-30T14:12:31;0.10;;;0.10;;
60831;SDS011;46665;51.558;-0.448;2022-07-30T14:14:57;0.10;;;0.10;;
60831;SDS011;46665;51.558;-0.448;2022-07-30T14:17:22;0.20;;;0.05;;
60831;SDS011;46665;51.558;-0.448;2022-07-30T14:19:48;0.00;;;0.00;;
60831;SDS011;46665;51.558;-0.448;2022-07-30T14:22:15;0.10;;;0.10;;
60831;SDS011;46665;51.558;-0.448;2022-07-30T14:24:40;0.13;;;0.10;;
60831;SDS011;46665;51.558;-0.448;2022-07-30T14:27:06;0.10;;;0.00;;
60831;SDS011;46665;51.558;-0.448;2022-07-30T14:29:32;0.35;;;0.00;;
60831;SDS011;46665;51.558;-0.448;2022-07-30T14:31:57;0.10;;;0.10;;
60831;SDS011;46665;51.558;-0.448;2022-07-30T14:34:23;0.20;;;0.20;;
60831;SDS011;46665;51.558;-0.448;2022-07-30T14:36:48;0.10;;;0.05;;
60831;SDS011;46665;51.558;-0.448;2022-07-30T14:39:14;0.70;;;0.40;;
60831;SDS011;46665;51.558;-0.448;2022-07-30T14:41:40;0.10;;;0.10;;
60831;SDS011;46665;51.558;-0.448;2022-07-30T14:44:07;0.00;;;0.00;;
60831;SDS011;46665;51.558;-0.448;2022-07-30T14:46:36;0.00;;;0.00;;
60831;SDS011;46665;51.558;-0.448;2022-07-30T14:49:02;0.00;;;0.00;;
60831;SDS011;46665;51.558;-0.448;2022-07-30T14:51:27;0.30;;;0.20;;
60831;SDS011;46665;51.558;-0.448;2022-07-30T14:53:52;0.00;;;0.00;;
60831;SDS011;46665;51.558;-0.448;2022-07-30T14:56:18;2.65;;;0.28;;
60831;SDS011;46665;51.558;-0.448;2022-07-30T14:58:44;0.00;;;0.00;;
60831;SDS011;46665;51.558;-0.448;2022-07-30T15:01:09;0.10;;;0.10;;
60831;SDS011;46665;51.558;-0.448;2022-07-30T15:03:35;0.15;;;0.15;;
60831;SDS011;46665;51.558;-0.448;2022-07-30T15:06:00;0.10;;;0.10;;
60831;SDS011;46665;51.558;-0.448;2022-07-30T15:08:27;0.10;;;0.10;;
60831;SDS011;46665;51.558;-0.448;2022-07-30T15:10:53;0.10;;;0.10;;
60831;SDS011;46665;51.558;-0.448;2022-07-30T15:13:18;0.17;;;0.17;;
60831;SDS011;46665;51.558;-0.448;2022-07-30T15:15:43;0.03;;;0.03;;
60831;SDS011;46665;51.558;-0.448;2022-07-30T15:18:09;0.10;;;0.10;;
60831;SDS011;46665;51.558;-0.448;2022-07-30T15:20:35;0.00;;;0.00;;